Terminal Aerodrome Forecast
Issued by NWS Bismarck, ND

Home | Current Version | Previous Version | Text Only | Print | Product List | Glossary On
Versions: 1 2 3 4 5 6 7 8 9 10 11 12 13 14 15 16 17 18
000
FTUS43 KBIS 291537 AAA
TAFISN
TAF AMD
KISN 291537Z 2916/3012 32016G25KT P6SM FEW035 SCT050
     FM292300 34018G27KT P6SM FEW070
     FM300200 34011KT P6SM FEW250=

USA.gov is the U.S. government's official web portal to all federal, state and local government web resources and services.